Nearby METAR Reports

 

ENRY - Rygge (nor-Afb), Norway
Distance from station: SØ 12km
Oppdatert: 20/05/2022 03:50
Hovedsaklig skyet
Hovedsaklig skyet
 Vind fra varies
Vind: varies 4 km/h
Temperatur: 12°C
Duggpunkt: 11°C
Fuktighet: 94%
Barometer: 1013 hPa
Clouds: Hovedsaklig skyet
Visibility: 10 km
Cloud details: Few Clouds 91 m
Hovedsaklig skyet 2134 m
2022/05/20 01:50 ENRY 200150Z AUTO VRB02KT 9999NDV FEW003/// BKN070/// 12/11 Q1013
ENTO - Torp (civ/Nor-Af, Norway
Distance from station: SV 34km
Oppdatert: 20/05/2022 03:50
Yr, Hovedsaklig skyet
Yr, Hovedsaklig skyet
 Vind fra S
Vind: S 7 km/h
Temperatur: 12°C
Duggpunkt: 12°C
Fuktighet: 100%
Barometer: 1013 hPa
Oversikt: Yr
Clouds: Hovedsaklig skyet
Visibility: 10 km
Cloud details: Few Clouds 1554 m
Hovedsaklig skyet 2073 m
Hovedsaklig skyet 2560 m
2022/05/20 01:50 ENTO 200150Z AUTO 18004KT 9999 -DZ FEW051/// BKN068/// BKN084/// 12/12 Q1013
 
ENNO - Notodden, Norway
Distance from station: V 80km
Oppdatert: 19/05/2022 18:50
NOT Current
Klart
Klart
 Vind fra Ø
Vind: Ø 9 km/h
Temperatur: 19°C
Duggpunkt: 10°C
Fuktighet: 56%
Barometer: 1014 hPa
Oversikt: Klart
Visibility: greater than 10 km
2022/05/19 16:50 ENNO 191650Z 10005KT CAVOK 19/10 Q1014
ENGM - Oslo/Gardermoen, Norway
Distance from station: NNØ 88km
Oppdatert: 20/05/2022 03:50
Klart
Klart
 Vind fra N
Vind: N 7 km/h
Temperatur: 11°C
Duggpunkt: 10°C
Fuktighet: 94%
Barometer: 1012 hPa
Oversikt: Klart
Visibility: greater than 10 km
2022/05/20 01:50 ENGM 200150Z 01004KT CAVOK 11/10 Q1012
 
ESOK - Karlstad North, Sweden
Distance from station: Ø 153km
Oppdatert: 20/05/2022 03:50
Overskyet
Overskyet
 Vind fra V
Vind: V 11 km/h
Clouds: Overskyet
Visibility: 9 km
Cloud details: Few Clouds 213 m
Delvis skyet 762 m
Overskyet 853 m
2022/05/20 01:50 ESOK 200150Z AUTO 26006KT 230V290 9000 FEW007/// SCT025/// OVC028/// 12/// Q1012
ESST - Torsby, Sweden
Distance from station: ØNØ 154km
Oppdatert: 20/05/2022 03:50
Noe regn, Overskyet
Noe regn, Overskyet
 Vind fra NØ
Vind: NØ 9 km/h
Temperatur: 11°C
Duggpunkt: 10°C
Fuktighet: 94%
Barometer: 1012 hPa
Oversikt: Noe regn
Clouds: Overskyet
Visibility: 10 km
Cloud details: Hovedsaklig skyet 518 m
Overskyet 853 m
2022/05/20 01:50 ESST 200150Z AUTO 05005KT 010V110 9999 -RA BKN017/// OVC028/// 11/10 Q1012
 
ESGT - Trollhattan (pvt, Sweden
Distance from station: SØ 159km
Oppdatert: 20/05/2022 03:50
Yr, Hovedsaklig skyet
Yr, Hovedsaklig skyet
 Vind fra S
Vind: S 6 km/h
Temperatur: 10°C
Duggpunkt: 9°C
Fuktighet: 94%
Barometer: 1014 hPa
Oversikt: Yr
Clouds: Hovedsaklig skyet
Visibility: 10 km
Cloud details: Few Clouds 640 m
Hovedsaklig skyet 1615 m
2022/05/20 01:50 ESGT 200150Z AUTO 18003KT 9999 -DZ FEW021/// BKN053/// 10/09 Q1014 RERA REDZ
ESIB - Satenas (swe-Afb, Sweden
Distance from station: SØ 164km
Oppdatert: 20/05/2022 03:50
Noe regn, Hovedsaklig skyet
Noe regn, Hovedsaklig skyet
 Vind fra VSV
Vind: VSV 7 km/h
Temperatur: 11°C
Duggpunkt: 10°C
Fuktighet: 94%
Barometer: 1013 hPa
Oversikt: Noe regn
Clouds: Hovedsaklig skyet
Visibility: 10 km
Cloud details: Delvis skyet 122 m
Hovedsaklig skyet 762 m
2022/05/20 01:50 ESIB 200150Z 24004KT 9999 -RA SCT004 BKN025 11/10 Q1013
 
ENCN - Kristiansand/Kje, Norway
Distance from station: SV 202km
Oppdatert: 20/05/2022 03:50
Klart
Klart
 Vind fra varies
Vind: varies 6 km/h
Temperatur: 11°C
Duggpunkt: 8°C
Fuktighet: 82%
Barometer: 1015 hPa
Clouds: Klart
Visibility: 10 km
2022/05/20 01:50 ENCN 200150Z AUTO VRB03KT 9999 NCD 11/08 Q1015
EKSN - Sindal Airport, Denmark
Distance from station: S 217km
Oppdatert: 30/12/2021 14:50
NOT Current
Tåke, Hovedsaklig skyet
Tåke, Hovedsaklig skyet
 Vind fra SV
Vind: SV 26 km/h
Temperatur: 7°C
Wind Chill: 3°C
Duggpunkt: 7°C
Fuktighet: 100%
Barometer: 999 hPa
Oversikt: Tåke
Clouds: Hovedsaklig skyet
Visibility: 5 km
Cloud details: Delvis skyet 183 m
Hovedsaklig skyet 244 m
2021/12/30 13:50 EKSN 301350Z 23014KT 4500 BR SCT006 BKN008 07/07 Q0999
 
ESGG - Goteborg/Landvet, Sweden
Distance from station: SSØ 220km
Oppdatert: 20/05/2022 03:50
Tåke, Overskyet
Tåke, Overskyet
 Vind fra VNV
Vind: VNV 2 km/h
Temperatur: 10°C
Duggpunkt: 9°C
Fuktighet: 94%
Barometer: 1014 hPa
Oversikt: Tåke
Clouds: Overskyet
Visibility: 5 km
Cloud details: Overskyet 1189 m
2022/05/20 01:50 ESGG 200150Z 30001KT 5000 BR OVC039 10/09 Q1014 REDZ
ESGR - Skovde Airport, Sweden
Distance from station: ØSØ 221km
Oppdatert: 31/03/2022 14:50
NOT Current
Noe regn, Overskyet
Noe regn, Overskyet
 Vind fra varies
Vind: varies 0 km/h
Temperatur: 3°C
Duggpunkt: -8°C
Fuktighet: 45%
Barometer: 1011 hPa
Oversikt: Noe regn
Clouds: Overskyet
Visibility: 10 km
Cloud details: Overskyet 1676 m
2022/03/31 12:50 ESGR 311250Z AUTO /////KT 9999 -RA OVC055/// 03/M08 Q1011 REUP
 
ESOE - Orebro (private), Sweden
Distance from station: Ø 252km
Oppdatert: 20/05/2022 03:50
Noe regn, Hovedsaklig skyet
Noe regn, Hovedsaklig skyet
 Vind fra NNØ
Vind: NNØ 6 km/h
Temperatur: 13°C
Duggpunkt: 12°C
Fuktighet: 94%
Barometer: 1012 hPa
Oversikt: Noe regn
Clouds: Hovedsaklig skyet
Visibility: 9 km
Cloud details: Hovedsaklig skyet 335 m
Hovedsaklig skyet 945 m
2022/05/20 01:50 ESOE 200150Z AUTO 03003KT 9000 -RA BKN011/// BKN031/// 13/12 Q1012
EKYT - Alborg, Denmark
Distance from station: S 264km
Oppdatert: 20/05/2022 03:55
Overskyet
Overskyet
 Vind fra V
Vind: V 9 km/h
Temperatur: 11°C
Duggpunkt: 10°C
Fuktighet: 94%
Barometer: 1016 hPa
Clouds: Overskyet
Visibility: 10 km
Cloud details: Few Clouds 335 m
Hovedsaklig skyet 427 m
Overskyet 1189 m
2022/05/20 01:55 EKYT 200155Z AUTO 28005KT 9999 FEW011/// BKN014/// OVC039/// 11/10 Q1016
 
ENSG - Sogndal/Haukasen, Norway
Distance from station: NV 269km
Oppdatert: 19/05/2022 21:50
NOT Current
Hovedsaklig skyet
Hovedsaklig skyet
 Vind fra V
Vind: V 9 km/h
Temperatur: 11°C
Duggpunkt: 3°C
Fuktighet: 58%
Barometer: 1016 hPa
Clouds: Hovedsaklig skyet
Visibility: 10 km
Cloud details: Hovedsaklig skyet 1524 m
2022/05/19 19:50 ENSG 191950Z 28005KT 9999 BKN050 11/03 Q1016 RMK WIND 3806FT 25007KT
ESGJ - Jonkoping Airpor, Sweden
Distance from station: SØ 273km
Oppdatert: 20/05/2022 03:50
Delvis skyet
Delvis skyet
 Vind fra V
Vind: V 6 km/h
Temperatur: 11°C
Duggpunkt: 10°C
Fuktighet: 94%
Barometer: 1013 hPa
Clouds: Delvis skyet
Visibility: 10 km
Cloud details: Delvis skyet 1311 m
2022/05/20 01:50 ESGJ 200150Z AUTO 27003KT 9999 SCT043/// 11/10 Q1013
 
ENZV - Stavanger/Sola(A, Norway
Distance from station: V 292km
Oppdatert: 20/05/2022 03:50
Overskyet
Overskyet
 Vind fra VSV
Vind: VSV 7 km/h
Temperatur: 10°C
Wind Chill: 9°C
Duggpunkt: 9°C
Fuktighet: 94%
Barometer: 1017 hPa
Clouds: Overskyet
Visibility: 10 km
Cloud details: Delvis skyet 91 m
Overskyet 183 m
2022/05/20 01:50 ENZV 200150Z 24004KT 9999 SCT003 OVC006 10/09 Q1017
ESSD - Borlange (swe-Af, Sweden
Distance from station: ØNØ 292km
Oppdatert: 20/05/2022 03:50
Regn, Overskyet
Regn, Overskyet
 Vind fra NØ
Vind: NØ 4 km/h
Temperatur: 7°C
Duggpunkt: 6°C
Fuktighet: 93%
Barometer: 1014 hPa
Oversikt: Regn
Clouds: Overskyet
Visibility: 7 km
Cloud details: Few Clouds 152 m
Overskyet 396 m
2022/05/20 01:50 ESSD 200150Z AUTO 05002KT 7000 RA FEW005/// OVC013/// 07/06 Q1014
 
ENSO - Stord/Soerstokke, Norway
Distance from station: V 300km
Oppdatert: 19/05/2022 20:20
NOT Current
Hovedsaklig skyet
Hovedsaklig skyet
 Vind fra S
Vind: S 6 km/h
Temperatur: 11°C
Duggpunkt: 11°C
Fuktighet: 100%
Barometer: 1016 hPa
Clouds: Hovedsaklig skyet
Visibility: 6 km
Cloud details: Hovedsaklig skyet 122 m
2022/05/19 18:20 ENSO 191820Z 19003KT 6000 BKN004 11/11 Q1016
ESCF - Linkoping/Malmen, Sweden
Distance from station: ØSØ 305km
Oppdatert: 20/05/2022 03:50
Noe regn, Showers, Overskyet
Noe regn, Showers, Overskyet
 Vind fra NV
Vind: NV 9 km/h
Temperatur: 13°C
Duggpunkt: 12°C
Fuktighet: 94%
Barometer: 1012 hPa
Oversikt: Noe regn, Showers
Clouds: Overskyet
Visibility: 10 km
Cloud details: Delvis skyet 122 m
Overskyet 274 m
2022/05/20 01:50 ESCF 200150Z AUTO 31005KT 9999 -SHRA SCT004/// OVC009/// 13/12 Q1012 RESHRA